Airfield :
LOGIN :

Register | Disclaimer

   EN    FR    IT 

 










Legend :    VFR   Marginal VFR   IFR   Intensive IFR   Very Intensive IFR
Visi :
Ceiling :
>= 8 km
>= 3000ft
5 to 8 km
1000 to 3000 ft
1500m to 5 km
500 to 1000 ft
800 to 1500m
200 to 500 ft
< 800m
< 200 ft
Symbols :   Thunderstorms  Fog  Heavy snow  Heavy precipitations  Wind > 20 kt
SIGMETs :     Misc.  Thunderstorms  Icing  Turbulence  Mountain Waves  Volcanic Ashes







- Airport Elevation : 527 ft
- IATA code : DBV


LDDU - Dubrovnik

CURRENT METAR :
  • 230930Z 23007KT 190V260 9999 FEW030TCU 26/19 Q1007 TEMPO 33010KT TS FEW030CB

EXPIRED METARs :
  • 230900Z 20007KT 120V240 CAVOK 26/19 Q1007 NOSIG
  • 230830Z 16006KT 110V260 CAVOK 27/17 Q1008 BECMG 30008KT
  • 230800Z VRB05KT CAVOK 26/16 Q1008 BECMG 30008KT
  • 230730Z VRB02KT CAVOK 26/17 Q1008 BECMG FM0900 30008KT
  • 230700Z VRB02KT CAVOK 25/17 Q1008 BECMG FM0900 30008KT

TAF TAF LDDU
Valid from the 23 at 06:00 until the 24 at 06:00 UTC


230525Z 2306/2406 08006KT 9999 SCT040 TX28/2313Z TN23/2403Z
BECMG 2307/2309 30008KT
PROB40
TEMPO 2309/2319 VRB15G25KT TSRA SCT025CB BKN030
BECMG 2320/2322 03020G30KT
No reported NOTAMs for that airfield.
3 SIGMETs reported for the Zagreb FIR (LDZO) :
 
Embedded thunderstorms
LDZO SIGMET 7 VALID 231000/231100 LDZA
LDZO ZAGREB FIR EMBD TS FCST WI N4556 E01851 - N4507 E01910 - N4514 E01824 - N4544 E01823 - N4556 E01851 TOP FL400 STNR NC=
Embedded thunderstorms
LDZO SIGMET 6 VALID 230900/231000 LDZA
LDZO ZAGREB FIR EMBD TS OBS WI N4556 E01851 - N4519 E01907 - N4514 E01837 - N4550 E01834 - N4556 E01851 TOP FL400 STNR NC=
Embedded thunderstorms
LDZO SIGMET 5 VALID 230900/231100 LDZA
LDZO ZAGREB FIR EMBD TS OBS WI N4251 E01526 - N4355 E01403 - N4413 E01439 - N4322 E01613 - N4331 E01711 - N4231 E01825 - N4139 E01748 - N4251 E01526 TOP FL390 MOV SE 10KT NC=



MET'MAP, your aeronautical weather chart ! - Copyright ORBIFLY December 2007 - Disclaimer

ORBIFLY MET'MAP TEAM :

Programming & Development : Alexandra Zaïnal
Concept & Development : Baudouin d'Aumeries
Co-Development & Prog : Marc-Olivier Méhu
Technical & hardware support : Manuel Goepfert

Contact : metmap@orbifly.com




SOURCES & CREDITS :

   NOAA